Time;durP1;ratioP1;P1;durP2;ratioP2;P2;SDS_P1;SDS_P2;PMS_P1;PMS_P2;Temp;Humidity;BMP_temperature;BMP_pressure;BME280_temperature;BME280_humidity;BME280_pressure;Samples;Min_cycle;Max_cycle;Signal;HPM_P1;HPM_P2
2022/08/01 00:01:53;;;;;;;2.80;1.17;;;26.70;75.30;;;;;;5074178;28;20498;-92
2022/08/01 00:04:20;;;;;;;1.00;0.90;;;26.70;75.30;;;;;;5074572;28;20441;-87
2022/08/01 00:06:47;;;;;;;1.13;1.03;;;26.70;75.30;;;;;;5074326;28;20483;-93
2022/08/01 00:09:14;;;;;;;1.13;1.03;;;26.70;75.20;;;;;;5074674;28;20488;-93
2022/08/01 00:11:41;;;;;;;1.30;1.20;;;26.70;75.20;;;;;;5073904;28;20512;-92
2022/08/01 00:14:09;;;;;;;1.40;1.30;;;26.70;75.30;;;;;;5074386;28;20518;-87
2022/08/01 00:16:36;;;;;;;1.30;1.20;;;26.70;75.40;;;;;;5074228;28;20572;-92
2022/08/01 00:19:04;;;;;;;1.20;1.10;;;26.70;75.30;;;;;;5073988;28;20491;-91
2022/08/01 00:21:31;;;;;;;1.20;1.10;;;26.80;75.40;;;;;;5074301;28;20445;-90
2022/08/01 00:23:59;;;;;;;1.57;1.07;;;26.70;75.30;;;;;;5073963;28;20445;-87
2022/08/01 00:26:25;;;;;;;1.27;1.17;;;26.70;75.40;;;;;;5074026;28;20445;-91
2022/08/01 00:28:52;;;;;;;1.10;1.00;;;26.70;75.40;;;;;;5073743;28;21018;-92
2022/08/01 00:31:19;;;;;;;1.53;1.43;;;26.70;75.20;;;;;;5074187;28;20530;-92
2022/08/01 00:33:46;;;;;;;1.20;1.10;;;26.70;75.50;;;;;;5074085;28;20509;-92
2022/08/01 00:36:15;;;;;;;1.40;1.30;;;26.70;75.60;;;;;;5074198;28;20520;-93
2022/08/01 00:38:41;;;;;;;1.50;1.40;;;26.70;75.60;;;;;;5074205;28;20915;-92
2022/08/01 00:41:08;;;;;;;1.13;1.03;;;26.70;76.50;;;;;;5074054;28;20524;-87
2022/08/01 00:43:35;;;;;;;1.30;1.20;;;26.70;75.90;;;;;;5073904;28;20495;-92
2022/08/01 00:46:02;;;;;;;1.20;1.10;;;26.70;75.50;;;;;;5074189;28;20522;-92
2022/08/01 00:48:29;;;;;;;1.77;1.50;;;26.70;75.40;;;;;;5073619;28;20510;-90
2022/08/01 00:50:56;;;;;;;1.40;1.30;;;26.70;75.60;;;;;;5073542;28;20532;-92
2022/08/01 00:53:25;;;;;;;1.30;1.20;;;26.70;75.50;;;;;;5073684;28;20544;-92
2022/08/01 00:55:52;;;;;;;1.33;1.23;;;26.70;75.50;;;;;;5073422;28;20527;-92
2022/08/01 00:58:19;;;;;;;1.00;0.90;;;26.70;75.40;;;;;;5073296;28;20995;-88
2022/08/01 01:00:46;;;;;;;1.50;1.40;;;26.70;75.50;;;;;;5073540;28;20536;-92
2022/08/01 01:03:13;;;;;;;1.50;1.40;;;26.70;75.70;;;;;;5073676;28;20448;-88
2022/08/01 01:05:46;;;;;;;1.20;1.10;;;26.70;75.60;;;;;;5073542;28;20445;-92
2022/08/01 01:08:22;;;;;;;1.20;1.10;;;26.70;75.40;;;;;;5073460;28;20532;-92
2022/08/01 01:10:58;;;;;;;1.70;1.60;;;26.70;75.50;;;;;;5073195;28;20559;-87
2022/08/01 01:13:34;;;;;;;1.50;1.40;;;26.80;75.60;;;;;;5073579;28;20465;-91
2022/08/01 01:16:05;;;;;;;1.47;1.37;;;26.70;75.60;;;;;;5073514;28;20901;-91
2022/08/01 01:18:38;;;;;;;1.10;1.00;;;26.70;75.60;;;;;;5073258;28;20516;-89
2022/08/01 01:21:26;;;;;;;1.40;1.30;;;26.70;75.50;;;;;;5073702;28;20440;-92
2022/08/01 01:24:09;;;;;;;1.30;1.20;;;26.70;75.50;;;;;;5073572;28;20815;-92
2022/08/01 01:26:47;;;;;;;1.23;1.13;;;26.70;75.40;;;;;;5073189;28;20527;-92
2022/08/01 01:29:21;;;;;;;1.30;1.20;;;26.70;75.70;;;;;;5073177;28;20530;-91
2022/08/01 01:31:53;;;;;;;1.30;1.20;;;26.70;75.60;;;;;;5073412;28;20519;-91
2022/08/01 01:34:22;;;;;;;1.10;1.00;;;26.70;75.60;;;;;;5073108;28;20469;-88
2022/08/01 01:36:50;;;;;;;1.20;1.10;;;26.70;75.40;;;;;;5073110;28;20580;-90
2022/08/01 01:39:19;;;;;;;1.20;1.10;;;26.70;75.50;;;;;;5072996;28;20532;-91
2022/08/01 01:41:47;;;;;;;1.30;1.20;;;26.70;75.80;;;;;;5073194;28;20539;-92
2022/08/01 01:44:16;;;;;;;1.20;1.10;;;26.70;75.50;;;;;;5072875;28;20936;-91
2022/08/01 01:46:44;;;;;;;1.30;1.20;;;26.70;75.50;;;;;;5073206;28;20540;-91
2022/08/01 01:49:12;;;;;;;1.30;1.20;;;26.70;75.70;;;;;;5073180;28;20536;-91
2022/08/01 01:51:41;;;;;;;1.27;1.17;;;26.70;75.50;;;;;;5073353;28;20877;-89
2022/08/01 01:54:09;;;;;;;1.50;1.40;;;26.70;75.80;;;;;;5072890;28;20536;-89
2022/08/01 01:56:48;;;;;;;1.30;1.20;;;26.70;75.50;;;;;;5072927;28;20487;-92
2022/08/01 01:59:19;;;;;;;1.30;1.20;;;26.70;75.50;;;;;;5072709;28;20495;-92
2022/08/01 02:01:47;;;;;;;1.40;1.30;;;26.70;75.50;;;;;;5073193;28;20433;-91
2022/08/01 02:04:15;;;;;;;1.30;1.20;;;26.70;75.30;;;;;;5073166;28;20440;-92
2022/08/01 02:06:44;;;;;;;1.30;1.20;;;26.70;75.50;;;;;;5073185;28;20444;-92
2022/08/01 02:09:12;;;;;;;1.10;1.00;;;26.70;75.60;;;;;;5072761;28;20440;-92
2022/08/01 02:11:40;;;;;;;1.50;1.40;;;26.70;75.50;;;;;;5074028;28;20476;-88
2022/08/01 02:14:09;;;;;;;1.23;1.13;;;26.70;75.60;;;;;;5076724;28;20518;-92
2022/08/01 02:16:40;;;;;;;1.20;1.10;;;26.70;75.50;;;;;;5076409;28;20491;-92
2022/08/01 02:19:07;;;;;;;1.37;1.27;;;26.70;75.50;;;;;;5076752;28;20846;-92
2022/08/01 02:21:39;;;;;;;1.10;1.00;;;26.70;75.70;;;;;;5076511;28;20536;-91
2022/08/01 02:24:13;;;;;;;1.10;1.00;;;26.70;75.60;;;;;;5076861;28;20440;-92
2022/08/01 02:26:44;;;;;;;1.30;1.20;;;26.70;75.60;;;;;;5076375;28;20476;-91
2022/08/01 02:29:14;;;;;;;1.20;1.10;;;26.70;75.40;;;;;;5076255;28;20467;-92
2022/08/01 02:31:46;;;;;;;1.07;0.97;;;26.70;75.40;;;;;;5076264;28;20482;-91
2022/08/01 02:34:19;;;;;;;1.20;1.10;;;26.70;75.40;;;;;;5075993;28;20441;-91
2022/08/01 02:36:48;;;;;;;1.30;1.20;;;26.70;75.40;;;;;;5076124;28;20504;-92
2022/08/01 02:39:18;;;;;;;1.27;1.17;;;26.70;75.40;;;;;;5076117;28;20445;-91
2022/08/01 02:41:49;;;;;;;1.20;1.10;;;26.70;75.40;;;;;;5075902;28;20441;-91
2022/08/01 02:44:23;;;;;;;1.10;1.00;;;26.70;75.40;;;;;;5075748;28;20536;-92
2022/08/01 02:46:57;;;;;;;1.20;1.10;;;26.70;75.50;;;;;;5076112;28;20528;-88
2022/08/01 02:49:26;;;;;;;1.30;1.20;;;26.70;76.50;;;;;;5076059;28;20512;-90
2022/08/01 02:51:55;;;;;;;1.20;1.10;;;26.70;75.50;;;;;;5075505;28;20535;-92
2022/08/01 02:54:23;;;;;;;1.30;1.20;;;26.70;75.60;;;;;;5075755;28;20496;-91
2022/08/01 02:56:52;;;;;;;1.10;1.00;;;26.70;75.40;;;;;;5075541;28;20482;-90
2022/08/01 02:59:25;;;;;;;1.50;1.40;;;26.70;76.20;;;;;;5075550;28;20488;-87
2022/08/01 03:01:56;;;;;;;1.10;1.00;;;26.70;75.50;;;;;;5075396;28;20429;-92
2022/08/01 03:04:24;;;;;;;1.30;1.20;;;26.70;75.50;;;;;;5075378;28;20435;-91
2022/08/01 03:06:53;;;;;;;1.10;1.00;;;26.70;75.60;;;;;;5075457;28;20439;-91
2022/08/01 03:09:21;;;;;;;1.40;1.30;;;26.70;75.50;;;;;;5075468;28;20439;-90
2022/08/01 03:11:50;;;;;;;1.10;1.00;;;26.70;75.40;;;;;;5075219;28;20477;-87
2022/08/01 03:14:19;;;;;;;1.17;1.07;;;26.70;75.40;;;;;;5075129;28;20487;-91
2022/08/01 03:16:47;;;;;;;1.13;1.03;;;26.70;75.50;;;;;;5075034;28;20995;-92
2022/08/01 03:19:19;;;;;;;1.40;1.30;;;26.70;75.40;;;;;;5075426;28;20536;-89
2022/08/01 03:21:47;;;;;;;1.20;1.10;;;26.70;75.40;;;;;;5076098;28;20441;-92
2022/08/01 03:24:16;;;;;;;1.40;1.30;;;26.70;76.20;;;;;;5075192;28;20535;-91
2022/08/01 03:26:44;;;;;;;1.10;1.00;;;26.70;75.60;;;;;;5074930;28;20943;-91
2022/08/01 03:29:17;;;;;;;1.27;1.17;;;26.70;75.50;;;;;;5074880;28;20492;-91
2022/08/01 03:31:47;;;;;;;1.40;1.30;;;26.70;75.50;;;;;;5074984;28;20437;-87
2022/08/01 03:34:15;;;;;;;1.20;1.10;;;26.70;75.50;;;;;;5074895;28;20468;-92
2022/08/01 03:36:48;;;;;;;1.20;1.10;;;26.70;75.50;;;;;;5074632;28;20564;-91
2022/08/01 03:39:17;;;;;;;1.17;1.07;;;26.70;75.50;;;;;;5074600;28;20532;-87
2022/08/01 03:41:51;;;;;;;1.10;1.00;;;26.70;75.50;;;;;;5074746;28;20992;-91
2022/08/01 03:44:23;;;;;;;1.30;1.20;;;26.70;75.50;;;;;;5074912;28;20983;-89
2022/08/01 03:46:57;;;;;;;1.40;1.30;;;26.80;75.60;;;;;;5074445;28;20908;-91
2022/08/01 03:49:30;;;;;;;1.20;1.10;;;26.70;75.50;;;;;;5075125;28;20857;-92
2022/08/01 03:51:59;;;;;;;1.40;1.30;;;26.70;75.50;;;;;;5075393;28;20436;-92
2022/08/01 03:54:31;;;;;;;1.23;1.13;;;26.70;75.50;;;;;;5074581;28;20536;-91
2022/08/01 03:56:59;;;;;;;1.20;1.10;;;26.70;75.40;;;;;;5074607;28;20469;-88
2022/08/01 03:59:27;;;;;;;1.00;0.90;;;26.70;75.50;;;;;;5074592;28;20441;-90
2022/08/01 04:01:54;;;;;;;1.20;1.10;;;26.70;75.50;;;;;;5074446;28;20447;-91
2022/08/01 04:04:25;;;;;;;1.70;1.30;;;26.70;75.50;;;;;;5074690;28;20467;-91
2022/08/01 04:06:53;;;;;;;1.20;1.10;;;26.70;75.50;;;;;;5074510;28;20437;-90
2022/08/01 04:09:21;;;;;;;1.10;1.00;;;26.70;75.50;;;;;;5074276;28;20445;-90
2022/08/01 04:11:48;;;;;;;1.20;1.10;;;26.70;75.50;;;;;;5074701;28;20514;-92
2022/08/01 04:14:15;;;;;;;1.10;1.00;;;26.70;75.40;;;;;;5074366;28;20445;-91
2022/08/01 04:16:41;;;;;;;1.50;1.40;;;26.70;75.40;;;;;;5074195;28;20452;-91
2022/08/01 04:19:08;;;;;;;1.17;1.07;;;26.70;75.50;;;;;;5074433;28;20448;-92
2022/08/01 04:21:37;;;;;;;1.30;1.20;;;26.70;75.50;;;;;;5073883;28;20531;-91
2022/08/01 04:24:09;;;;;;;1.10;1.00;;;26.70;75.50;;;;;;5074242;28;20449;-91
2022/08/01 04:26:38;;;;;;;1.20;1.10;;;26.70;75.60;;;;;;5074226;28;20440;-91
2022/08/01 04:29:07;;;;;;;1.20;1.10;;;26.70;75.50;;;;;;5073672;28;20468;-91
2022/08/01 04:31:35;;;;;;;1.10;1.00;;;26.70;76.40;;;;;;5073670;28;20532;-89
2022/08/01 04:34:05;;;;;;;1.20;1.10;;;26.70;75.60;;;;;;5073607;28;20445;-91
2022/08/01 04:36:36;;;;;;;1.30;1.20;;;26.70;75.60;;;;;;5073375;28;20524;-90
2022/08/01 04:39:05;;;;;;;1.30;1.20;;;26.70;75.60;;;;;;5073586;28;20440;-89
2022/08/01 04:41:33;;;;;;;1.20;1.10;;;26.70;75.50;;;;;;5073639;28;20535;-89
2022/08/01 04:44:02;;;;;;;1.20;1.10;;;26.70;75.60;;;;;;5073812;28;20443;-90
2022/08/01 04:46:30;;;;;;;1.10;1.00;;;26.60;75.50;;;;;;5073500;28;20441;-91
2022/08/01 04:48:57;;;;;;;1.10;1.00;;;26.70;75.60;;;;;;5073776;28;20476;-89
2022/08/01 04:51:24;;;;;;;1.37;1.27;;;26.70;75.60;;;;;;5073763;28;20447;-92
2022/08/01 04:53:54;;;;;;;1.40;1.30;;;26.70;75.70;;;;;;5073674;28;20535;-90
2022/08/01 04:56:21;;;;;;;1.47;1.37;;;26.70;75.60;;;;;;5073577;28;20441;-90
2022/08/01 04:59:39;;;;;;;1.10;1.00;;;26.70;75.70;;;;;;5073539;28;20503;-91
2022/08/01 05:01:36;;;;;;;1.13;1.03;;;26.70;75.70;;;;;;5073070;28;20527;-92
2022/08/01 05:04:03;;;;;;;1.30;1.20;;;26.60;75.60;;;;;;5074128;28;20523;-96
2022/08/01 05:06:30;;;;;;;1.20;1.10;;;26.70;75.60;;;;;;5075165;28;20943;-91
2022/08/01 05:08:58;;;;;;;2.87;2.20;;;26.50;75.50;;;;;;5073444;28;20448;-83
2022/08/01 05:11:25;;;;;;;2.03;1.90;;;26.70;77.70;;;;;;5072182;28;21011;-84
2022/08/01 05:13:52;;;;;;;1.53;1.43;;;26.70;77.60;;;;;;5072543;28;20447;-84
2022/08/01 05:16:19;;;;;;;1.50;1.30;;;26.60;76.90;;;;;;5072695;28;20523;-84
2022/08/01 05:18:46;;;;;;;1.20;1.10;;;26.70;76.10;;;;;;5072761;28;20914;-84
2022/08/01 05:21:12;;;;;;;1.57;1.30;;;26.70;75.80;;;;;;5072616;28;20449;-85
2022/08/01 05:23:39;;;;;;;1.83;1.30;;;26.70;75.80;;;;;;5072931;28;20543;-86
2022/08/01 05:26:07;;;;;;;2.03;1.83;;;26.60;75.80;;;;;;5073105;28;20445;-86
2022/08/01 05:28:34;;;;;;;1.50;1.40;;;26.70;76.50;;;;;;5052731;28;20469;-88
2022/08/01 05:31:02;;;;;;;1.70;1.27;;;26.70;76.30;;;;;;5052769;28;20445;-88
2022/08/01 05:33:29;;;;;;;1.63;1.50;;;26.70;76.10;;;;;;5052848;28;20449;-88
2022/08/01 05:59:56;;;;;;;7.53;6.83;;;26.60;84.70;;;;;;4937680;29;20431;-84
2022/08/01 06:02:22;;;;;;;9.63;6.57;;;26.50;85.10;;;;;;4985723;28;20524;-85
2022/08/01 06:04:49;;;;;;;10.97;7.70;;;26.50;85.30;;;;;;5056804;28;20433;-85
2022/08/01 06:07:16;;;;;;;8.23;7.33;;;26.50;85.50;;;;;;5056585;28;20496;-85
2022/08/01 06:09:43;;;;;;;7.77;6.30;;;26.50;86.20;;;;;;5056099;28;20452;-85
2022/08/01 06:12:10;;;;;;;7.67;6.67;;;26.50;86.30;;;;;;5056594;28;20514;-85
2022/08/01 06:14:37;;;;;;;7.43;6.80;;;26.40;86.50;;;;;;5056215;28;21019;-84
2022/08/01 06:17:05;;;;;;;8.07;7.27;;;26.40;87.10;;;;;;5056096;28;20951;-83
2022/08/01 06:19:32;;;;;;;6.90;6.30;;;26.30;87.20;;;;;;5056126;28;20441;-83
2022/08/01 06:22:00;;;;;;;5.80;5.30;;;26.40;87.00;;;;;;5059082;28;20885;-84
2022/08/01 06:24:27;;;;;;;8.40;4.87;;;26.40;86.40;;;;;;5056512;28;20441;-84
2022/08/01 06:26:54;;;;;;;6.23;3.90;;;26.40;85.80;;;;;;5056146;28;20446;-83
2022/08/01 06:29:20;;;;;;;4.23;3.83;;;26.40;84.80;;;;;;5056105;28;20817;-86
2022/08/01 06:31:47;;;;;;;3.60;3.30;;;26.50;84.10;;;;;;5056455;28;20872;-86
2022/08/01 06:34:16;;;;;;;3.57;3.27;;;26.50;83.70;;;;;;5056110;28;20474;-86
2022/08/01 06:36:42;;;;;;;6.50;2.97;;;26.50;83.20;;;;;;5055807;28;20441;-86
2022/08/01 06:39:09;;;;;;;4.00;3.50;;;26.50;82.80;;;;;;5055673;28;20576;-86
2022/08/01 06:41:36;;;;;;;3.40;3.10;;;26.50;82.40;;;;;;5056067;28;20515;-86
2022/08/01 06:44:04;;;;;;;3.20;3.00;;;26.60;82.30;;;;;;5056002;28;20445;-85
2022/08/01 06:46:31;;;;;;;2.97;2.67;;;26.50;82.00;;;;;;5055500;28;20449;-86
2022/08/01 06:48:58;;;;;;;4.50;3.00;;;26.60;81.90;;;;;;5055317;28;20928;-86
2022/08/01 06:51:26;;;;;;;3.07;2.77;;;26.60;81.70;;;;;;5055921;28;20446;-86
2022/08/01 06:53:53;;;;;;;3.43;3.07;;;26.60;81.50;;;;;;5055623;28;20442;-86
2022/08/01 06:56:20;;;;;;;3.53;2.80;;;26.60;81.30;;;;;;5055431;28;20634;-86
2022/08/01 06:58:47;;;;;;;5.00;3.00;;;26.60;81.10;;;;;;5055079;28;20492;-86
2022/08/01 07:01:14;;;;;;;8.50;3.00;;;26.60;81.00;;;;;;5055584;28;20465;-85
2022/08/01 07:03:41;;;;;;;2.93;2.73;;;26.70;80.90;;;;;;5055524;28;20474;-86
2022/08/01 07:06:09;;;;;;;4.40;2.50;;;26.60;80.70;;;;;;5055256;28;20444;-86
2022/08/01 07:08:37;;;;;;;2.83;2.63;;;26.70;80.70;;;;;;5055375;28;20453;-86
2022/08/01 07:11:04;;;;;;;2.60;2.40;;;26.70;80.60;;;;;;5055075;28;20470;-86
2022/08/01 07:13:33;;;;;;;2.73;2.53;;;26.70;80.30;;;;;;5055112;28;20482;-87
2022/08/01 07:16:00;;;;;;;2.77;2.57;;;26.70;80.30;;;;;;5055016;28;20964;-87
2022/08/01 07:18:26;;;;;;;2.90;2.70;;;26.70;80.10;;;;;;5055014;28;20576;-86
2022/08/01 07:20:53;;;;;;;3.37;3.07;;;26.70;80.10;;;;;;5055208;28;20805;-85
2022/08/01 07:23:20;;;;;;;5.50;3.00;;;26.70;80.30;;;;;;5055179;28;20625;-85
2022/08/01 07:25:50;;;;;;;3.43;2.67;;;26.70;79.90;;;;;;5055085;28;20472;-85
2022/08/01 07:28:17;;;;;;;3.63;2.93;;;26.70;79.60;;;;;;5054974;28;20457;-85
2022/08/01 07:30:44;;;;;;;3.30;3.00;;;26.70;79.80;;;;;;5054918;28;20536;-86
2022/08/01 07:33:11;;;;;;;2.60;2.40;;;26.70;79.40;;;;;;5054680;28;20446;-85
2022/08/01 07:35:39;;;;;;;2.33;2.03;;;26.70;79.30;;;;;;5054645;28;20481;-84
2022/08/01 07:38:06;;;;;;;2.70;2.50;;;26.70;79.30;;;;;;5054383;28;20496;-85
2022/08/01 07:40:33;;;;;;;8.10;2.93;;;26.70;79.30;;;;;;5054388;28;20449;-85
2022/08/01 07:43:02;;;;;;;2.83;2.50;;;26.70;79.30;;;;;;5054618;28;20438;-85
2022/08/01 07:45:29;;;;;;;2.93;2.70;;;26.70;79.20;;;;;;5054580;28;20488;-85
2022/08/01 07:47:56;;;;;;;2.30;2.10;;;26.70;79.30;;;;;;5054452;28;20450;-84
2022/08/01 07:50:23;;;;;;;2.80;2.60;;;26.70;80.10;;;;;;5054368;28;20440;-85
2022/08/01 07:52:50;;;;;;;4.57;2.53;;;26.70;79.20;;;;;;5054244;28;20544;-84
2022/08/01 07:55:16;;;;;;;4.60;2.60;;;26.70;79.30;;;;;;5054950;28;20442;-84
2022/08/01 07:57:43;;;;;;;3.40;3.10;;;26.70;79.20;;;;;;5054152;28;20548;-85
2022/08/01 08:00:13;;;;;;;6.80;3.00;;;26.70;79.10;;;;;;5054517;28;20548;-84
2022/08/01 08:02:40;;;;;;;3.63;2.70;;;26.70;79.40;;;;;;5054661;28;20545;-85
2022/08/01 08:05:07;;;;;;;3.60;2.53;;;26.70;79.40;;;;;;5054662;28;20525;-84
2022/08/01 08:07:35;;;;;;;2.93;2.37;;;26.70;79.30;;;;;;5055588;28;20532;-85
2022/08/01 08:10:01;;;;;;;2.40;2.03;;;26.70;79.60;;;;;;5073317;28;20500;-84
2022/08/01 08:12:28;;;;;;;2.37;2.03;;;26.70;79.50;;;;;;5073992;28;20537;-84
2022/08/01 08:14:55;;;;;;;2.87;2.67;;;26.70;79.50;;;;;;5073629;28;20441;-84
2022/08/01 08:17:23;;;;;;;2.90;2.53;;;26.70;79.60;;;;;;5074115;28;20560;-84
2022/08/01 08:19:50;;;;;;;3.70;2.63;;;26.70;79.50;;;;;;5073806;28;20520;-85
2022/08/01 08:22:17;;;;;;;2.60;2.40;;;26.70;79.40;;;;;;5074044;28;20545;-85
2022/08/01 08:24:45;;;;;;;2.80;2.60;;;26.70;79.60;;;;;;5073928;28;20448;-85
2022/08/01 08:27:11;;;;;;;2.30;2.10;;;26.70;79.60;;;;;;5073735;28;20539;-85
2022/08/01 08:29:38;;;;;;;2.87;2.17;;;26.70;79.60;;;;;;5073620;28;20449;-85
2022/08/01 08:32:06;;;;;;;2.20;2.00;;;26.70;79.70;;;;;;5073903;28;20511;-85
2022/08/01 08:34:34;;;;;;;2.13;2.00;;;26.70;79.50;;;;;;5073655;28;20441;-85
2022/08/01 08:37:01;;;;;;;5.60;2.20;;;26.70;79.60;;;;;;5073745;28;20527;-85
2022/08/01 08:39:29;;;;;;;2.60;2.20;;;26.70;79.50;;;;;;5073512;28;20496;-85
2022/08/01 08:41:58;;;;;;;9.00;2.60;;;26.70;79.50;;;;;;5073649;28;20522;-87
2022/08/01 08:44:26;;;;;;;2.50;2.03;;;26.70;79.70;;;;;;5073929;28;20805;-83
2022/08/01 08:46:55;;;;;;;2.43;2.23;;;26.70;79.90;;;;;;5073622;28;20524;-83
2022/08/01 08:49:25;;;;;;;3.70;2.60;;;26.70;79.90;;;;;;5073479;28;20539;-85
2022/08/01 08:51:55;;;;;;;5.83;2.40;;;26.70;79.50;;;;;;5073682;28;20528;-85
2022/08/01 08:54:23;;;;;;;3.10;2.80;;;26.70;79.00;;;;;;5073686;28;20527;-85
2022/08/01 08:56:52;;;;;;;3.20;2.13;;;26.80;79.10;;;;;;5073680;28;20437;-84
2022/08/01 08:59:19;;;;;;;6.53;2.40;;;26.70;79.10;;;;;;5074274;28;20484;-84
2022/08/01 09:01:46;;;;;;;4.47;2.43;;;26.70;79.00;;;;;;5073666;28;20532;-84
2022/08/01 09:04:13;;;;;;;2.57;2.37;;;26.70;78.90;;;;;;5073882;28;21018;-84
2022/08/01 09:06:41;;;;;;;2.57;2.37;;;26.80;79.00;;;;;;5073646;28;20532;-84
2022/08/01 09:09:10;;;;;;;6.00;2.70;;;26.70;78.90;;;;;;5073616;28;20471;-84
2022/08/01 09:11:38;;;;;;;2.33;2.00;;;26.70;78.80;;;;;;5073417;28;20477;-85
2022/08/01 09:14:07;;;;;;;4.27;2.10;;;26.70;79.00;;;;;;5073926;28;20482;-84
2022/08/01 09:16:36;;;;;;;6.73;2.67;;;26.80;79.20;;;;;;5073126;28;20456;-85
2022/08/01 09:19:09;;;;;;;3.20;2.33;;;26.80;79.00;;;;;;5073374;28;20593;-85
2022/08/01 09:21:35;;;;;;;2.30;2.07;;;26.80;79.00;;;;;;5076779;28;20547;-85
2022/08/01 09:24:05;;;;;;;2.50;2.30;;;26.80;79.00;;;;;;5077292;28;20440;-84
2022/08/01 09:26:36;;;;;;;2.03;1.80;;;26.70;78.90;;;;;;5077547;28;20485;-84
2022/08/01 09:29:05;;;;;;;3.47;1.83;;;26.80;79.00;;;;;;5077095;28;20436;-84
2022/08/01 09:31:41;;;;;;;2.27;1.70;;;26.80;79.00;;;;;;5077534;28;20432;-84
2022/08/01 09:34:09;;;;;;;1.80;1.70;;;26.80;79.20;;;;;;5087726;28;20442;-84
2022/08/01 09:36:51;;;;;;;2.93;1.60;;;26.80;79.00;;;;;;5097332;28;20447;-84
2022/08/01 09:39:19;;;;;;;3.93;1.90;;;26.80;79.00;;;;;;5097605;28;20533;-84
2022/08/01 09:41:47;;;;;;;3.37;2.00;;;26.80;79.00;;;;;;5081596;28;20437;-84
2022/08/01 09:44:17;;;;;;;2.67;1.63;;;26.80;79.20;;;;;;5076991;28;20437;-85
2022/08/01 09:47:02;;;;;;;1.83;1.70;;;26.80;79.30;;;;;;5076965;28;20483;-84
2022/08/01 09:49:30;;;;;;;2.87;1.47;;;26.80;79.00;;;;;;5076721;28;20536;-85
2022/08/01 09:51:58;;;;;;;2.10;1.60;;;26.80;79.20;;;;;;5076355;28;20437;-85
2022/08/01 09:54:31;;;;;;;2.73;1.83;;;26.80;79.30;;;;;;5076751;28;20441;-85
2022/08/01 09:57:11;;;;;;;2.37;1.70;;;26.80;79.10;;;;;;5076517;28;20543;-88
2022/08/01 09:59:41;;;;;;;1.83;1.60;;;26.80;79.30;;;;;;5076304;28;20574;-80
2022/08/01 10:02:10;;;;;;;1.70;1.40;;;26.80;79.50;;;;;;5058175;28;20446;-84
2022/08/01 10:04:37;;;;;;;2.40;1.50;;;26.80;79.50;;;;;;5056333;28;20576;-87
2022/08/01 10:07:06;;;;;;;1.60;1.50;;;26.80;79.50;;;;;;5056299;28;20448;-80
2022/08/01 10:09:35;;;;;;;2.43;1.63;;;26.90;79.70;;;;;;5056023;28;20441;-87
2022/08/01 10:12:03;;;;;;;1.80;1.70;;;26.90;79.70;;;;;;5056326;28;20446;-80
2022/08/01 10:14:32;;;;;;;1.97;1.43;;;26.80;79.80;;;;;;5056334;28;20998;-84
2022/08/01 10:17:00;;;;;;;2.20;1.80;;;26.80;79.70;;;;;;5056107;28;20952;-80
2022/08/01 10:19:30;;;;;;;2.27;1.63;;;26.80;79.70;;;;;;5075212;28;20508;-81
2022/08/01 10:21:58;;;;;;;1.83;1.73;;;26.80;79.80;;;;;;5076201;28;20536;-82
2022/08/01 10:24:27;;;;;;;1.60;1.43;;;26.80;79.70;;;;;;5075654;28;20484;-80
2022/08/01 10:26:59;;;;;;;2.33;1.23;;;26.80;79.90;;;;;;5076324;28;20469;-87
2022/08/01 10:29:27;;;;;;;1.80;1.70;;;26.90;80.10;;;;;;5076079;28;20900;-80
2022/08/01 10:31:56;;;;;;;4.73;1.80;;;26.80;79.90;;;;;;5076680;28;20528;-84
2022/08/01 10:34:24;;;;;;;1.57;1.47;;;26.80;79.90;;;;;;5076086;28;20486;-85
2022/08/01 10:36:51;;;;;;;3.67;1.67;;;26.80;80.90;;;;;;5076141;28;20440;-89
2022/08/01 10:39:19;;;;;;;5.53;2.07;;;26.80;80.20;;;;;;5075793;28;20580;-92
2022/08/01 10:41:47;;;;;;;3.97;2.20;;;26.90;80.20;;;;;;5075986;28;20436;-84
2022/08/01 10:44:14;;;;;;;2.83;1.77;;;26.80;80.20;;;;;;5076351;28;20443;-83
2022/08/01 10:46:49;;;;;;;2.50;1.63;;;26.90;80.40;;;;;;5075754;28;20436;-83
2022/08/01 10:49:20;;;;;;;5.50;1.90;;;26.90;80.20;;;;;;5075830;28;20455;-83
2022/08/01 10:51:47;;;;;;;2.03;1.40;;;26.90;80.20;;;;;;5079508;28;20801;-83
2022/08/01 10:54:14;;;;;;;2.57;1.57;;;26.90;80.20;;;;;;5079598;28;20447;-83
2022/08/01 10:56:44;;;;;;;2.47;1.63;;;26.90;80.20;;;;;;5083531;28;20844;-83
2022/08/01 10:59:16;;;;;;;1.70;1.60;;;26.90;80.20;;;;;;5078814;28;20477;-83
2022/08/01 11:01:43;;;;;;;3.23;1.53;;;26.90;80.00;;;;;;5075501;28;20473;-83
2022/08/01 11:04:12;;;;;;;2.07;1.73;;;26.90;80.10;;;;;;5075330;28;20465;-85
2022/08/01 11:06:50;;;;;;;1.67;1.30;;;26.90;79.90;;;;;;5075409;28;20441;-83
2022/08/01 11:09:27;;;;;;;1.40;1.30;;;26.90;80.00;;;;;;5075343;28;20444;-82
2022/08/01 11:12:08;;;;;;;2.23;1.40;;;26.90;79.90;;;;;;5075242;28;20550;-82
2022/08/01 11:14:55;;;;;;;3.47;1.30;;;26.90;79.90;;;;;;5076118;28;20565;-83
2022/08/01 11:17:33;;;;;;;2.43;1.40;;;26.90;79.90;;;;;;5075046;28;20539;-88
2022/08/01 11:20:08;;;;;;;1.50;1.20;;;26.90;80.00;;;;;;5075133;28;20488;-83
2022/08/01 11:23:11;;;;;;;1.67;1.30;;;26.90;79.90;;;;;;5078619;28;20494;-83
2022/08/01 11:26:13;;;;;;;2.07;1.20;;;26.90;79.90;;;;;;5075658;28;20800;-83
2022/08/01 11:28:43;;;;;;;1.70;1.53;;;26.90;79.80;;;;;;5033147;28;20565;-83
2022/08/01 11:31:30;;;;;;;1.63;1.20;;;26.90;80.00;;;;;;5033094;28;20435;-83
2022/08/01 11:33:57;;;;;;;1.60;1.47;;;26.90;79.80;;;;;;5058854;28;21008;-83
2022/08/01 11:36:23;;;;;;;1.20;1.10;;;26.90;79.90;;;;;;5074905;28;20616;-83
2022/08/01 11:39:14;;;;;;;1.67;1.40;;;26.90;79.80;;;;;;5075020;28;20862;-92
2022/08/01 11:41:44;;;;;;;1.10;0.97;;;26.90;79.80;;;;;;5074783;28;20532;-83
2022/08/01 11:44:13;;;;;;;2.23;1.53;;;26.90;80.00;;;;;;5074906;28;20443;-84
2022/08/01 11:47:03;;;;;;;1.40;1.30;;;26.90;79.80;;;;;;5077067;28;20955;-82
2022/08/01 11:49:47;;;;;;;1.20;1.10;;;27.00;79.70;;;;;;5077088;28;20608;-83
2022/08/01 11:52:16;;;;;;;1.43;1.30;;;26.90;79.90;;;;;;5074728;28;20441;-82
2022/08/01 11:54:46;;;;;;;2.00;1.40;;;26.90;80.00;;;;;;5074895;28;21023;-91
2022/08/01 11:57:18;;;;;;;1.20;1.00;;;26.90;79.80;;;;;;5074271;28;20484;-82
2022/08/01 11:59:48;;;;;;;2.60;1.20;;;26.90;79.90;;;;;;5074726;28;20484;-92
2022/08/01 12:02:20;;;;;;;1.30;1.20;;;26.90;79.80;;;;;;5074462;28;20437;-82
2022/08/01 12:04:53;;;;;;;1.30;1.20;;;26.90;79.80;;;;;;5074264;28;20445;-91
2022/08/01 12:07:21;;;;;;;1.17;1.03;;;26.90;79.80;;;;;;5074522;28;20443;-82
2022/08/01 12:09:48;;;;;;;2.17;1.97;;;26.90;79.80;;;;;;5073784;28;20463;-86
2022/08/01 12:12:20;;;;;;;1.77;1.27;;;26.90;79.70;;;;;;5074285;28;20535;-82
2022/08/01 12:14:55;;;;;;;1.30;1.10;;;26.90;79.70;;;;;;5074021;28;20443;-82
2022/08/01 12:17:29;;;;;;;1.60;1.20;;;26.90;79.60;;;;;;5074173;28;20846;-88
2022/08/01 12:19:56;;;;;;;1.30;0.87;;;27.00;79.70;;;;;;5056466;28;20498;-83
2022/08/01 12:22:24;;;;;;;1.53;0.90;;;26.90;79.60;;;;;;5073965;28;20443;-82
2022/08/01 12:24:52;;;;;;;1.80;1.30;;;26.90;79.60;;;;;;5074198;28;20451;-90
2022/08/01 12:27:27;;;;;;;1.30;1.20;;;26.90;79.60;;;;;;5074052;28;20457;-82
2022/08/01 12:29:55;;;;;;;1.60;0.93;;;26.90;79.50;;;;;;5073842;28;20543;-90
2022/08/01 12:32:24;;;;;;;1.50;1.17;;;26.90;79.50;;;;;;5073676;28;20449;-82
2022/08/01 12:34:51;;;;;;;1.20;0.90;;;26.90;79.40;;;;;;5073919;28;20480;-82
2022/08/01 12:37:19;;;;;;;2.17;1.20;;;26.90;79.50;;;;;;5073590;28;20472;-82
2022/08/01 12:39:46;;;;;;;1.40;1.30;;;26.90;79.40;;;;;;5073355;28;20476;-82
2022/08/01 12:42:14;;;;;;;1.50;1.20;;;26.90;79.40;;;;;;5073710;28;20433;-82
2022/08/01 12:44:45;;;;;;;1.33;1.23;;;26.90;79.40;;;;;;5073519;28;21034;-82
2022/08/01 12:47:13;;;;;;;1.10;1.00;;;26.90;79.40;;;;;;5074055;28;20440;-83
2022/08/01 12:49:43;;;;;;;1.23;1.00;;;26.90;79.40;;;;;;5073503;28;20445;-83
2022/08/01 12:52:10;;;;;;;1.40;1.20;;;26.90;79.30;;;;;;5074223;28;20445;-83
2022/08/01 12:55:01;;;;;;;1.17;1.07;;;26.90;79.30;;;;;;5073443;28;20892;-82
2022/08/01 12:57:28;;;;;;;1.97;0.97;;;26.90;79.20;;;;;;5069844;28;20495;-85
2022/08/01 13:00:08;;;;;;;2.50;0.90;;;26.90;79.20;;;;;;5073521;28;20559;-82
2022/08/01 13:02:35;;;;;;;2.00;1.13;;;26.90;79.10;;;;;;5073988;28;20444;-83
2022/08/01 13:05:03;;;;;;;1.20;1.10;;;26.90;79.30;;;;;;5073456;28;20444;-83
2022/08/01 13:07:37;;;;;;;1.50;1.07;;;26.90;79.20;;;;;;5073718;28;20447;-83
2022/08/01 13:10:05;;;;;;;1.83;1.30;;;27.00;79.20;;;;;;5073264;28;20563;-89
2022/08/01 13:12:32;;;;;;;1.20;1.00;;;26.90;79.00;;;;;;5073446;28;20468;-88
2022/08/01 13:14:59;;;;;;;1.10;0.90;;;26.90;79.00;;;;;;5073338;28;20531;-83
2022/08/01 13:17:35;;;;;;;1.33;1.07;;;26.90;79.30;;;;;;5073383;28;20437;-90
2022/08/01 13:20:02;;;;;;;1.53;1.10;;;26.90;79.30;;;;;;5073162;28;20833;-83
2022/08/01 13:22:36;;;;;;;1.77;1.10;;;26.90;79.30;;;;;;5073623;28;20840;-83
2022/08/01 13:25:13;;;;;;;1.20;1.10;;;27.00;79.20;;;;;;5073122;28;20935;-83